sensor_id;sensor_type;location;lat;lon;timestamp;P1;durP1;ratioP1;P2;durP2;ratioP2
41263;SDS011;26998;48.714;9.414;2022-09-09T00:04:32;4.40;;;2.00;;
41263;SDS011;26998;48.714;9.414;2022-09-09T00:07:18;4.93;;;2.88;;
41263;SDS011;26998;48.714;9.414;2022-09-09T00:10:03;3.97;;;2.20;;
41263;SDS011;26998;48.714;9.414;2022-09-09T00:15:25;5.15;;;2.20;;
41263;SDS011;26998;48.714;9.414;2022-09-09T00:18:06;5.65;;;2.72;;
41263;SDS011;26998;48.714;9.414;2022-09-09T00:23:33;4.07;;;1.80;;
41263;SDS011;26998;48.714;9.414;2022-09-09T00:26:03;5.40;;;2.13;;
41263;SDS011;26998;48.714;9.414;2022-09-09T00:28:39;8.55;;;2.47;;
41263;SDS011;26998;48.714;9.414;2022-09-09T00:31:23;4.00;;;2.10;;
41263;SDS011;26998;48.714;9.414;2022-09-09T00:33:53;4.25;;;1.88;;
41263;SDS011;26998;48.714;9.414;2022-09-09T00:38:55;7.97;;;2.30;;
41263;SDS011;26998;48.714;9.414;2022-09-09T00:41:29;4.07;;;2.13;;
41263;SDS011;26998;48.714;9.414;2022-09-09T00:44:50;7.60;;;2.50;;
41263;SDS011;26998;48.714;9.414;2022-09-09T00:57:39;4.55;;;1.83;;
41263;SDS011;26998;48.714;9.414;2022-09-09T01:03:07;4.38;;;1.65;;
41263;SDS011;26998;48.714;9.414;2022-09-09T01:17:01;3.78;;;1.90;;
41263;SDS011;26998;48.714;9.414;2022-09-09T01:25:11;4.93;;;2.00;;
41263;SDS011;26998;48.714;9.414;2022-09-09T01:27:46;5.80;;;1.88;;
41263;SDS011;26998;48.714;9.414;2022-09-09T01:30:16;5.03;;;1.60;;
41263;SDS011;26998;48.714;9.414;2022-09-09T01:32:52;4.65;;;1.70;;
41263;SDS011;26998;48.714;9.414;2022-09-09T01:38:06;6.38;;;2.08;;
41263;SDS011;26998;48.714;9.414;2022-09-09T01:40:32;7.47;;;2.00;;
41263;SDS011;26998;48.714;9.414;2022-09-09T01:42:59;9.07;;;1.80;;
41263;SDS011;26998;48.714;9.414;2022-09-09T01:45:26;4.78;;;1.88;;
41263;SDS011;26998;48.714;9.414;2022-09-09T01:47:52;3.10;;;1.60;;
41263;SDS011;26998;48.714;9.414;2022-09-09T01:50:19;4.97;;;2.25;;
41263;SDS011;26998;48.714;9.414;2022-09-09T01:52:48;4.80;;;2.35;;
41263;SDS011;26998;48.714;9.414;2022-09-09T01:55:19;5.43;;;2.38;;
41263;SDS011;26998;48.714;9.414;2022-09-09T02:00:41;2.97;;;1.65;;
41263;SDS011;26998;48.714;9.414;2022-09-09T02:03:25;3.80;;;1.88;;
41263;SDS011;26998;48.714;9.414;2022-09-09T02:06:03;4.10;;;2.22;;
41263;SDS011;26998;48.714;9.414;2022-09-09T02:08:49;3.50;;;2.53;;
41263;SDS011;26998;48.714;9.414;2022-09-09T02:11:18;3.15;;;2.35;;
41263;SDS011;26998;48.714;9.414;2022-09-09T02:13:48;4.53;;;2.25;;
41263;SDS011;26998;48.714;9.414;2022-09-09T02:16:28;3.40;;;1.57;;
41263;SDS011;26998;48.714;9.414;2022-09-09T02:19:06;3.38;;;2.20;;
41263;SDS011;26998;48.714;9.414;2022-09-09T02:21:35;9.02;;;1.92;;
41263;SDS011;26998;48.714;9.414;2022-09-09T02:24:02;4.18;;;1.80;;
41263;SDS011;26998;48.714;9.414;2022-09-09T02:26:32;3.17;;;1.95;;
41263;SDS011;26998;48.714;9.414;2022-09-09T02:29:02;5.32;;;2.22;;
41263;SDS011;26998;48.714;9.414;2022-09-09T02:31:32;4.18;;;1.90;;
41263;SDS011;26998;48.714;9.414;2022-09-09T02:34:00;5.63;;;1.77;;
41263;SDS011;26998;48.714;9.414;2022-09-09T02:36:31;4.40;;;2.10;;
41263;SDS011;26998;48.714;9.414;2022-09-09T02:39:00;9.38;;;2.55;;
41263;SDS011;26998;48.714;9.414;2022-09-09T02:41:30;8.27;;;2.42;;
41263;SDS011;26998;48.714;9.414;2022-09-09T02:43:59;2.95;;;1.77;;
41263;SDS011;26998;48.714;9.414;2022-09-09T02:54:34;7.03;;;2.13;;
41263;SDS011;26998;48.714;9.414;2022-09-09T02:57:06;6.13;;;2.42;;
41263;SDS011;26998;48.714;9.414;2022-09-09T02:59:36;3.30;;;1.85;;
41263;SDS011;26998;48.714;9.414;2022-09-09T03:02:04;5.75;;;2.10;;
41263;SDS011;26998;48.714;9.414;2022-09-09T03:04:31;6.68;;;2.80;;
41263;SDS011;26998;48.714;9.414;2022-09-09T03:06:58;4.22;;;2.33;;
41263;SDS011;26998;48.714;9.414;2022-09-09T03:09:25;9.18;;;2.38;;
41263;SDS011;26998;48.714;9.414;2022-09-09T03:11:51;7.53;;;2.80;;
41263;SDS011;26998;48.714;9.414;2022-09-09T03:14:18;4.97;;;2.30;;
41263;SDS011;26998;48.714;9.414;2022-09-09T03:16:48;5.28;;;2.70;;
41263;SDS011;26998;48.714;9.414;2022-09-09T03:19:14;3.45;;;2.22;;
41263;SDS011;26998;48.714;9.414;2022-09-09T03:21:42;6.47;;;2.80;;
41263;SDS011;26998;48.714;9.414;2022-09-09T03:24:08;4.93;;;2.05;;
41263;SDS011;26998;48.714;9.414;2022-09-09T03:26:34;5.10;;;2.03;;
41263;SDS011;26998;48.714;9.414;2022-09-09T03:29:01;5.78;;;1.98;;
41263;SDS011;26998;48.714;9.414;2022-09-09T03:31:28;4.80;;;2.08;;
41263;SDS011;26998;48.714;9.414;2022-09-09T03:33:54;3.58;;;2.58;;
41263;SDS011;26998;48.714;9.414;2022-09-09T03:36:20;8.90;;;2.78;;
41263;SDS011;26998;48.714;9.414;2022-09-09T03:38:47;6.18;;;2.25;;
41263;SDS011;26998;48.714;9.414;2022-09-09T03:41:13;6.65;;;2.53;;
41263;SDS011;26998;48.714;9.414;2022-09-09T03:43:40;7.60;;;2.88;;
41263;SDS011;26998;48.714;9.414;2022-09-09T03:46:06;6.50;;;2.72;;
41263;SDS011;26998;48.714;9.414;2022-09-09T03:48:33;4.97;;;2.67;;
41263;SDS011;26998;48.714;9.414;2022-09-09T03:51:00;4.20;;;2.60;;
41263;SDS011;26998;48.714;9.414;2022-09-09T03:53:27;6.18;;;2.45;;
41263;SDS011;26998;48.714;9.414;2022-09-09T03:55:54;5.28;;;2.30;;
41263;SDS011;26998;48.714;9.414;2022-09-09T03:58:22;4.50;;;2.28;;
41263;SDS011;26998;48.714;9.414;2022-09-09T04:01:05;5.97;;;2.55;;
41263;SDS011;26998;48.714;9.414;2022-09-09T04:03:35;6.07;;;3.30;;
41263;SDS011;26998;48.714;9.414;2022-09-09T04:06:03;7.30;;;3.22;;
41263;SDS011;26998;48.714;9.414;2022-09-09T04:08:30;7.88;;;2.60;;
41263;SDS011;26998;48.714;9.414;2022-09-09T04:10:57;6.75;;;3.10;;
41263;SDS011;26998;48.714;9.414;2022-09-09T04:13:24;5.85;;;2.65;;
41263;SDS011;26998;48.714;9.414;2022-09-09T04:15:52;3.95;;;2.55;;
41263;SDS011;26998;48.714;9.414;2022-09-09T04:18:19;10.52;;;3.40;;
41263;SDS011;26998;48.714;9.414;2022-09-09T04:20:47;5.28;;;2.97;;
41263;SDS011;26998;48.714;9.414;2022-09-09T04:23:14;4.38;;;2.70;;
41263;SDS011;26998;48.714;9.414;2022-09-09T04:25:47;6.35;;;2.70;;
41263;SDS011;26998;48.714;9.414;2022-09-09T04:28:16;4.18;;;2.85;;
41263;SDS011;26998;48.714;9.414;2022-09-09T04:30:43;4.45;;;2.95;;
41263;SDS011;26998;48.714;9.414;2022-09-09T04:33:11;6.97;;;2.67;;
41263;SDS011;26998;48.714;9.414;2022-09-09T04:35:39;6.38;;;2.70;;
41263;SDS011;26998;48.714;9.414;2022-09-09T04:38:14;10.63;;;3.17;;
41263;SDS011;26998;48.714;9.414;2022-09-09T04:40:45;5.50;;;2.30;;
41263;SDS011;26998;48.714;9.414;2022-09-09T04:43:13;3.67;;;2.22;;
41263;SDS011;26998;48.714;9.414;2022-09-09T04:45:40;4.95;;;2.47;;
41263;SDS011;26998;48.714;9.414;2022-09-09T04:48:10;6.25;;;2.55;;
41263;SDS011;26998;48.714;9.414;2022-09-09T04:50:36;6.63;;;2.45;;
41263;SDS011;26998;48.714;9.414;2022-09-09T04:53:03;7.95;;;2.70;;
41263;SDS011;26998;48.714;9.414;2022-09-09T04:55:31;8.52;;;2.83;;
41263;SDS011;26998;48.714;9.414;2022-09-09T04:58:02;6.55;;;2.50;;
41263;SDS011;26998;48.714;9.414;2022-09-09T05:00:30;4.35;;;2.38;;
41263;SDS011;26998;48.714;9.414;2022-09-09T05:02:56;3.83;;;2.70;;
41263;SDS011;26998;48.714;9.414;2022-09-09T05:05:23;8.15;;;2.50;;
41263;SDS011;26998;48.714;9.414;2022-09-09T05:07:49;5.57;;;2.58;;
41263;SDS011;26998;48.714;9.414;2022-09-09T05:10:16;7.20;;;2.80;;
41263;SDS011;26998;48.714;9.414;2022-09-09T05:12:42;4.05;;;2.42;;
41263;SDS011;26998;48.714;9.414;2022-09-09T05:15:09;8.98;;;2.70;;
41263;SDS011;26998;48.714;9.414;2022-09-09T05:17:35;7.30;;;2.60;;
41263;SDS011;26998;48.714;9.414;2022-09-09T05:20:02;3.63;;;2.28;;
41263;SDS011;26998;48.714;9.414;2022-09-09T05:22:34;9.30;;;2.40;;
41263;SDS011;26998;48.714;9.414;2022-09-09T05:25:01;3.78;;;2.38;;
41263;SDS011;26998;48.714;9.414;2022-09-09T05:27:27;6.80;;;2.70;;
41263;SDS011;26998;48.714;9.414;2022-09-09T05:30:02;5.18;;;2.50;;
41263;SDS011;26998;48.714;9.414;2022-09-09T05:32:29;5.32;;;2.95;;
41263;SDS011;26998;48.714;9.414;2022-09-09T05:34:56;6.13;;;3.08;;
41263;SDS011;26998;48.714;9.414;2022-09-09T05:37:22;5.10;;;2.63;;
41263;SDS011;26998;48.714;9.414;2022-09-09T05:39:48;5.07;;;2.65;;
41263;SDS011;26998;48.714;9.414;2022-09-09T05:42:15;6.13;;;2.47;;
41263;SDS011;26998;48.714;9.414;2022-09-09T05:44:42;5.95;;;2.65;;
41263;SDS011;26998;48.714;9.414;2022-09-09T05:47:08;4.82;;;2.28;;
41263;SDS011;26998;48.714;9.414;2022-09-09T05:49:35;4.78;;;2.50;;
41263;SDS011;26998;48.714;9.414;2022-09-09T05:52:02;7.95;;;2.53;;
41263;SDS011;26998;48.714;9.414;2022-09-09T05:54:28;6.50;;;2.63;;
41263;SDS011;26998;48.714;9.414;2022-09-09T05:56:54;6.05;;;2.20;;
41263;SDS011;26998;48.714;9.414;2022-09-09T05:59:21;7.70;;;2.53;;
41263;SDS011;26998;48.714;9.414;2022-09-09T06:01:47;8.80;;;2.47;;
41263;SDS011;26998;48.714;9.414;2022-09-09T06:04:14;6.47;;;2.80;;
41263;SDS011;26998;48.714;9.414;2022-09-09T06:06:40;7.88;;;2.95;;
41263;SDS011;26998;48.714;9.414;2022-09-09T06:09:07;10.90;;;3.10;;
41263;SDS011;26998;48.714;9.414;2022-09-09T06:11:34;7.00;;;2.72;;
41263;SDS011;26998;48.714;9.414;2022-09-09T06:14:03;8.95;;;2.40;;
41263;SDS011;26998;48.714;9.414;2022-09-09T06:16:31;7.35;;;2.63;;
41263;SDS011;26998;48.714;9.414;2022-09-09T06:18:58;6.28;;;2.80;;
41263;SDS011;26998;48.714;9.414;2022-09-09T06:21:26;8.35;;;3.30;;
41263;SDS011;26998;48.714;9.414;2022-09-09T06:23:54;8.20;;;2.97;;
41263;SDS011;26998;48.714;9.414;2022-09-09T06:26:26;7.68;;;3.20;;
41263;SDS011;26998;48.714;9.414;2022-09-09T06:28:55;7.07;;;3.30;;
41263;SDS011;26998;48.714;9.414;2022-09-09T06:31:23;8.93;;;3.15;;
41263;SDS011;26998;48.714;9.414;2022-09-09T06:33:55;8.55;;;2.90;;
41263;SDS011;26998;48.714;9.414;2022-09-09T06:36:23;9.00;;;3.30;;
41263;SDS011;26998;48.714;9.414;2022-09-09T06:38:58;9.30;;;2.83;;
41263;SDS011;26998;48.714;9.414;2022-09-09T06:41:25;9.02;;;2.85;;
41263;SDS011;26998;48.714;9.414;2022-09-09T06:43:53;11.73;;;2.67;;
41263;SDS011;26998;48.714;9.414;2022-09-09T06:46:21;10.13;;;2.78;;
41263;SDS011;26998;48.714;9.414;2022-09-09T06:48:49;5.82;;;3.05;;
41263;SDS011;26998;48.714;9.414;2022-09-09T06:51:19;4.97;;;3.10;;
41263;SDS011;26998;48.714;9.414;2022-09-09T06:53:51;6.93;;;2.83;;
41263;SDS011;26998;48.714;9.414;2022-09-09T06:56:23;10.98;;;2.97;;
41263;SDS011;26998;48.714;9.414;2022-09-09T07:01:21;2.63;;;2.20;;
41263;SDS011;26998;48.714;9.414;2022-09-09T07:03:51;3.10;;;2.45;;
41263;SDS011;26998;48.714;9.414;2022-09-09T07:06:20;3.95;;;2.00;;
41263;SDS011;26998;48.714;9.414;2022-09-09T07:08:50;3.65;;;2.20;;
41263;SDS011;26998;48.714;9.414;2022-09-09T07:11:22;5.75;;;2.30;;
41263;SDS011;26998;48.714;9.414;2022-09-09T07:13:50;5.78;;;2.10;;
41263;SDS011;26998;48.714;9.414;2022-09-09T07:16:18;3.17;;;2.63;;
41263;SDS011;26998;48.714;9.414;2022-09-09T07:18:46;10.30;;;2.33;;
41263;SDS011;26998;48.714;9.414;2022-09-09T07:21:14;3.75;;;2.13;;
41263;SDS011;26998;48.714;9.414;2022-09-09T07:23:40;3.67;;;1.60;;
41263;SDS011;26998;48.714;9.414;2022-09-09T07:26:12;2.42;;;1.60;;
41263;SDS011;26998;48.714;9.414;2022-09-09T07:28:41;4.65;;;1.83;;
41263;SDS011;26998;48.714;9.414;2022-09-09T07:31:18;6.18;;;2.90;;
41263;SDS011;26998;48.714;9.414;2022-09-09T07:33:49;4.25;;;1.55;;
41263;SDS011;26998;48.714;9.414;2022-09-09T07:36:19;3.75;;;1.85;;
41263;SDS011;26998;48.714;9.414;2022-09-09T07:38:47;6.20;;;1.92;;
41263;SDS011;26998;48.714;9.414;2022-09-09T07:41:16;3.17;;;1.38;;
41263;SDS011;26998;48.714;9.414;2022-09-09T07:43:49;5.07;;;1.55;;
41263;SDS011;26998;48.714;9.414;2022-09-09T07:46:17;3.65;;;1.60;;
41263;SDS011;26998;48.714;9.414;2022-09-09T07:48:45;4.10;;;1.60;;
41263;SDS011;26998;48.714;9.414;2022-09-09T07:51:18;4.15;;;1.85;;
41263;SDS011;26998;48.714;9.414;2022-09-09T07:53:54;3.22;;;2.00;;
41263;SDS011;26998;48.714;9.414;2022-09-09T07:56:26;6.28;;;2.25;;
41263;SDS011;26998;48.714;9.414;2022-09-09T07:58:54;3.72;;;1.60;;
41263;SDS011;26998;48.714;9.414;2022-09-09T08:01:33;3.50;;;1.70;;
41263;SDS011;26998;48.714;9.414;2022-09-09T08:04:03;3.92;;;1.60;;
41263;SDS011;26998;48.714;9.414;2022-09-09T08:06:32;5.00;;;1.60;;
41263;SDS011;26998;48.714;9.414;2022-09-09T08:09:01;2.92;;;1.58;;
41263;SDS011;26998;48.714;9.414;2022-09-09T08:11:29;6.40;;;1.92;;
41263;SDS011;26998;48.714;9.414;2022-09-09T08:14:02;3.13;;;1.58;;
41263;SDS011;26998;48.714;9.414;2022-09-09T08:16:30;8.55;;;1.98;;
41263;SDS011;26998;48.714;9.414;2022-09-09T08:18:59;3.17;;;1.80;;
41263;SDS011;26998;48.714;9.414;2022-09-09T08:21:29;3.25;;;1.63;;
41263;SDS011;26998;48.714;9.414;2022-09-09T08:23:58;4.05;;;1.60;;
41263;SDS011;26998;48.714;9.414;2022-09-09T08:26:27;7.25;;;1.60;;
41263;SDS011;26998;48.714;9.414;2022-09-09T08:28:55;4.55;;;1.50;;
41263;SDS011;26998;48.714;9.414;2022-09-09T08:31:24;4.55;;;1.85;;
41263;SDS011;26998;48.714;9.414;2022-09-09T08:33:50;6.07;;;1.70;;
41263;SDS011;26998;48.714;9.414;2022-09-09T08:36:24;4.20;;;1.40;;
41263;SDS011;26998;48.714;9.414;2022-09-09T08:38:53;5.10;;;1.75;;
41263;SDS011;26998;48.714;9.414;2022-09-09T08:46:58;4.18;;;1.30;;
41263;SDS011;26998;48.714;9.414;2022-09-09T08:52:19;3.00;;;1.45;;
41263;SDS011;26998;48.714;9.414;2022-09-09T08:54:56;4.07;;;1.42;;
41263;SDS011;26998;48.714;9.414;2022-09-09T08:57:29;4.95;;;1.60;;
41263;SDS011;26998;48.714;9.414;2022-09-09T08:59:58;5.15;;;1.92;;
41263;SDS011;26998;48.714;9.414;2022-09-09T09:02:31;3.00;;;1.50;;
41263;SDS011;26998;48.714;9.414;2022-09-09T09:07:53;3.00;;;1.55;;
41263;SDS011;26998;48.714;9.414;2022-09-09T09:10:45;5.97;;;1.95;;
41263;SDS011;26998;48.714;9.414;2022-09-09T09:13:18;3.20;;;1.40;;
41263;SDS011;26998;48.714;9.414;2022-09-09T09:15:50;4.55;;;1.42;;
41263;SDS011;26998;48.714;9.414;2022-09-09T09:18:21;5.55;;;1.42;;
41263;SDS011;26998;48.714;9.414;2022-09-09T09:20:54;3.60;;;1.58;;
41263;SDS011;26998;48.714;9.414;2022-09-09T09:23:24;3.92;;;1.55;;
41263;SDS011;26998;48.714;9.414;2022-09-09T09:26:05;3.42;;;1.40;;
41263;SDS011;26998;48.714;9.414;2022-09-09T09:28:35;4.35;;;1.30;;
41263;SDS011;26998;48.714;9.414;2022-09-09T09:31:06;5.30;;;1.35;;
41263;SDS011;26998;48.714;9.414;2022-09-09T09:33:38;2.90;;;1.20;;
41263;SDS011;26998;48.714;9.414;2022-09-09T09:36:15;4.35;;;1.10;;
41263;SDS011;26998;48.714;9.414;2022-09-09T09:38:55;2.90;;;1.23;;
41263;SDS011;26998;48.714;9.414;2022-09-09T09:41:43;2.38;;;0.93;;
41263;SDS011;26998;48.714;9.414;2022-09-09T09:47:07;3.58;;;1.05;;
41263;SDS011;26998;48.714;9.414;2022-09-09T09:49:39;2.90;;;1.25;;
41263;SDS011;26998;48.714;9.414;2022-09-09T09:52:06;2.03;;;1.27;;
41263;SDS011;26998;48.714;9.414;2022-09-09T09:54:41;1.75;;;1.10;;
41263;SDS011;26998;48.714;9.414;2022-09-09T09:57:11;2.67;;;1.25;;
41263;SDS011;26998;48.714;9.414;2022-09-09T09:59:39;6.97;;;1.80;;
41263;SDS011;26998;48.714;9.414;2022-09-09T10:02:12;2.42;;;1.10;;
41263;SDS011;26998;48.714;9.414;2022-09-09T10:04:41;4.90;;;1.25;;
41263;SDS011;26998;48.714;9.414;2022-09-09T10:07:18;7.65;;;1.17;;
41263;SDS011;26998;48.714;9.414;2022-09-09T10:09:51;5.38;;;1.27;;
41263;SDS011;26998;48.714;9.414;2022-09-09T10:12:33;8.25;;;1.42;;
41263;SDS011;26998;48.714;9.414;2022-09-09T10:19:02;3.42;;;0.88;;
41263;SDS011;26998;48.714;9.414;2022-09-09T10:23:59;3.33;;;0.85;;
41263;SDS011;26998;48.714;9.414;2022-09-09T10:26:47;5.53;;;1.02;;
41263;SDS011;26998;48.714;9.414;2022-09-09T10:32:06;3.58;;;1.17;;
41263;SDS011;26998;48.714;9.414;2022-09-09T10:37:26;3.05;;;1.10;;
41263;SDS011;26998;48.714;9.414;2022-09-09T10:40:21;4.50;;;1.23;;
41263;SDS011;26998;48.714;9.414;2022-09-09T10:42:58;3.63;;;1.07;;
41263;SDS011;26998;48.714;9.414;2022-09-09T10:48:31;3.20;;;0.88;;
41263;SDS011;26998;48.714;9.414;2022-09-09T10:51:13;2.70;;;1.23;;
41263;SDS011;26998;48.714;9.414;2022-09-09T10:56:41;1.85;;;0.88;;
41263;SDS011;26998;48.714;9.414;2022-09-09T10:59:29;3.08;;;0.98;;
41263;SDS011;26998;48.714;9.414;2022-09-09T11:02:15;2.20;;;0.98;;
41263;SDS011;26998;48.714;9.414;2022-09-09T11:04:53;4.03;;;0.90;;
41263;SDS011;26998;48.714;9.414;2022-09-09T11:07:29;4.20;;;1.45;;
41263;SDS011;26998;48.714;9.414;2022-09-09T11:10:00;3.15;;;1.15;;
41263;SDS011;26998;48.714;9.414;2022-09-09T11:12:31;4.40;;;1.00;;
41263;SDS011;26998;48.714;9.414;2022-09-09T11:17:47;3.35;;;1.27;;
41263;SDS011;26998;48.714;9.414;2022-09-09T11:20:16;2.97;;;1.00;;
41263;SDS011;26998;48.714;9.414;2022-09-09T11:22:45;4.97;;;1.35;;
41263;SDS011;26998;48.714;9.414;2022-09-09T11:25:26;1.33;;;0.88;;
41263;SDS011;26998;48.714;9.414;2022-09-09T11:30:58;2.03;;;0.82;;
41263;SDS011;26998;48.714;9.414;2022-09-09T11:44:38;5.00;;;1.88;;
41263;SDS011;26998;48.714;9.414;2022-09-09T11:47:15;7.78;;;2.00;;
41263;SDS011;26998;48.714;9.414;2022-09-09T11:49:52;7.00;;;1.35;;
41263;SDS011;26998;48.714;9.414;2022-09-09T11:52:23;4.25;;;1.38;;
41263;SDS011;26998;48.714;9.414;2022-09-09T11:55:11;5.82;;;1.50;;
41263;SDS011;26998;48.714;9.414;2022-09-09T11:58:01;7.97;;;1.27;;
41263;SDS011;26998;48.714;9.414;2022-09-09T12:00:40;3.80;;;1.45;;
41263;SDS011;26998;48.714;9.414;2022-09-09T12:06:19;4.38;;;1.23;;
41263;SDS011;26998;48.714;9.414;2022-09-09T12:08:55;2.63;;;1.20;;
41263;SDS011;26998;48.714;9.414;2022-09-09T12:11:32;3.75;;;1.20;;
41263;SDS011;26998;48.714;9.414;2022-09-09T12:13:59;2.33;;;1.02;;
41263;SDS011;26998;48.714;9.414;2022-09-09T12:16:33;4.47;;;1.30;;
41263;SDS011;26998;48.714;9.414;2022-09-09T12:19:15;5.18;;;1.45;;
41263;SDS011;26998;48.714;9.414;2022-09-09T12:22:04;2.53;;;1.10;;
41263;SDS011;26998;48.714;9.414;2022-09-09T12:27:27;2.78;;;0.93;;
41263;SDS011;26998;48.714;9.414;2022-09-09T12:30:09;2.25;;;0.60;;
41263;SDS011;26998;48.714;9.414;2022-09-09T12:32:37;1.83;;;0.90;;
41263;SDS011;26998;48.714;9.414;2022-09-09T12:35:09;1.38;;;0.80;;
41263;SDS011;26998;48.714;9.414;2022-09-09T12:40:19;2.50;;;0.65;;
41263;SDS011;26998;48.714;9.414;2022-09-09T12:42:50;1.52;;;0.70;;
41263;SDS011;26998;48.714;9.414;2022-09-09T12:48:04;2.65;;;0.95;;
41263;SDS011;26998;48.714;9.414;2022-09-09T12:50:48;1.92;;;0.75;;
41263;SDS011;26998;48.714;9.414;2022-09-09T12:53:26;1.60;;;0.80;;
41263;SDS011;26998;48.714;9.414;2022-09-09T12:55:59;1.80;;;0.50;;
41263;SDS011;26998;48.714;9.414;2022-09-09T12:58:37;3.88;;;0.80;;
41263;SDS011;26998;48.714;9.414;2022-09-09T13:01:05;3.40;;;1.05;;
41263;SDS011;26998;48.714;9.414;2022-09-09T13:03:42;2.65;;;0.85;;
41263;SDS011;26998;48.714;9.414;2022-09-09T13:06:13;1.60;;;0.73;;
41263;SDS011;26998;48.714;9.414;2022-09-09T13:08:55;2.95;;;0.95;;
41263;SDS011;26998;48.714;9.414;2022-09-09T13:11:36;2.58;;;0.85;;
41263;SDS011;26998;48.714;9.414;2022-09-09T13:14:12;2.08;;;1.15;;
41263;SDS011;26998;48.714;9.414;2022-09-09T13:16:56;4.28;;;1.10;;
41263;SDS011;26998;48.714;9.414;2022-09-09T13:19:36;5.20;;;1.27;;
41263;SDS011;26998;48.714;9.414;2022-09-09T13:22:14;1.85;;;0.70;;
41263;SDS011;26998;48.714;9.414;2022-09-09T13:25:00;1.67;;;0.55;;
41263;SDS011;26998;48.714;9.414;2022-09-09T13:27:34;3.95;;;1.17;;
41263;SDS011;26998;48.714;9.414;2022-09-09T13:30:19;18.98;;;2.00;;
41263;SDS011;26998;48.714;9.414;2022-09-09T13:33:02;2.38;;;0.95;;
41263;SDS011;26998;48.714;9.414;2022-09-09T13:35:45;2.40;;;0.70;;
41263;SDS011;26998;48.714;9.414;2022-09-09T13:38:14;2.90;;;1.15;;
41263;SDS011;26998;48.714;9.414;2022-09-09T13:40:54;4.03;;;1.00;;
41263;SDS011;26998;48.714;9.414;2022-09-09T13:43:21;3.28;;;0.90;;
41263;SDS011;26998;48.714;9.414;2022-09-09T13:45:57;3.40;;;1.10;;
41263;SDS011;26998;48.714;9.414;2022-09-09T13:48:25;2.05;;;1.08;;
41263;SDS011;26998;48.714;9.414;2022-09-09T13:50:56;2.92;;;0.80;;
41263;SDS011;26998;48.714;9.414;2022-09-09T13:53:34;2.50;;;0.90;;
41263;SDS011;26998;48.714;9.414;2022-09-09T13:56:01;1.90;;;0.80;;
41263;SDS011;26998;48.714;9.414;2022-09-09T13:58:28;4.07;;;0.70;;
41263;SDS011;26998;48.714;9.414;2022-09-09T14:00:55;4.85;;;0.90;;
41263;SDS011;26998;48.714;9.414;2022-09-09T14:03:21;2.88;;;0.70;;
41263;SDS011;26998;48.714;9.414;2022-09-09T14:05:48;3.60;;;1.00;;
41263;SDS011;26998;48.714;9.414;2022-09-09T14:08:16;4.75;;;1.05;;
41263;SDS011;26998;48.714;9.414;2022-09-09T14:10:47;4.35;;;0.80;;
41263;SDS011;26998;48.714;9.414;2022-09-09T14:16:36;4.65;;;1.02;;
41263;SDS011;26998;48.714;9.414;2022-09-09T14:19:03;1.15;;;0.80;;
41263;SDS011;26998;48.714;9.414;2022-09-09T14:21:29;2.42;;;0.75;;
41263;SDS011;26998;48.714;9.414;2022-09-09T14:23:56;4.40;;;0.90;;
41263;SDS011;26998;48.714;9.414;2022-09-09T14:26:23;1.00;;;0.57;;
41263;SDS011;26998;48.714;9.414;2022-09-09T14:28:50;1.42;;;0.70;;
41263;SDS011;26998;48.714;9.414;2022-09-09T14:31:21;1.65;;;0.60;;
41263;SDS011;26998;48.714;9.414;2022-09-09T14:33:51;1.60;;;0.73;;
41263;SDS011;26998;48.714;9.414;2022-09-09T14:36:17;3.28;;;0.77;;
41263;SDS011;26998;48.714;9.414;2022-09-09T14:38:44;2.05;;;0.50;;
41263;SDS011;26998;48.714;9.414;2022-09-09T14:41:15;2.15;;;0.98;;
41263;SDS011;26998;48.714;9.414;2022-09-09T14:43:43;2.38;;;1.05;;
41263;SDS011;26998;48.714;9.414;2022-09-09T14:46:11;2.92;;;0.90;;
41263;SDS011;26998;48.714;9.414;2022-09-09T14:48:39;1.33;;;0.63;;
41263;SDS011;26998;48.714;9.414;2022-09-09T14:51:07;1.33;;;0.70;;
41263;SDS011;26998;48.714;9.414;2022-09-09T14:53:35;4.20;;;1.15;;
41263;SDS011;26998;48.714;9.414;2022-09-09T14:56:05;3.30;;;0.70;;
41263;SDS011;26998;48.714;9.414;2022-09-09T14:58:36;3.03;;;0.57;;
41263;SDS011;26998;48.714;9.414;2022-09-09T15:01:04;1.35;;;0.70;;
41263;SDS011;26998;48.714;9.414;2022-09-09T15:03:35;0.95;;;0.70;;
41263;SDS011;26998;48.714;9.414;2022-09-09T15:06:08;2.22;;;0.50;;
41263;SDS011;26998;48.714;9.414;2022-09-09T15:08:37;2.92;;;1.05;;
41263;SDS011;26998;48.714;9.414;2022-09-09T15:11:08;1.30;;;0.60;;
41263;SDS011;26998;48.714;9.414;2022-09-09T15:13:36;1.55;;;0.80;;
41263;SDS011;26998;48.714;9.414;2022-09-09T15:16:04;2.03;;;0.73;;
41263;SDS011;26998;48.714;9.414;2022-09-09T15:18:32;1.50;;;0.50;;
41263;SDS011;26998;48.714;9.414;2022-09-09T15:20:59;5.18;;;0.85;;
41263;SDS011;26998;48.714;9.414;2022-09-09T15:23:26;0.50;;;0.35;;
41263;SDS011;26998;48.714;9.414;2022-09-09T15:25:53;1.98;;;0.68;;
41263;SDS011;26998;48.714;9.414;2022-09-09T15:28:20;1.48;;;0.80;;
41263;SDS011;26998;48.714;9.414;2022-09-09T15:30:48;1.60;;;0.75;;
41263;SDS011;26998;48.714;9.414;2022-09-09T15:33:19;1.80;;;0.60;;
41263;SDS011;26998;48.714;9.414;2022-09-09T15:35:47;2.60;;;0.75;;
41263;SDS011;26998;48.714;9.414;2022-09-09T15:38:13;2.60;;;0.80;;
41263;SDS011;26998;48.714;9.414;2022-09-09T15:40:40;2.17;;;0.60;;
41263;SDS011;26998;48.714;9.414;2022-09-09T15:43:06;0.88;;;0.57;;
41263;SDS011;26998;48.714;9.414;2022-09-09T15:45:33;4.18;;;0.60;;
41263;SDS011;26998;48.714;9.414;2022-09-09T15:48:00;2.10;;;0.80;;
41263;SDS011;26998;48.714;9.414;2022-09-09T15:50:28;2.17;;;1.05;;
41263;SDS011;26998;48.714;9.414;2022-09-09T15:52:54;6.97;;;1.33;;
41263;SDS011;26998;48.714;9.414;2022-09-09T15:55:21;3.60;;;1.05;;
41263;SDS011;26998;48.714;9.414;2022-09-09T15:57:47;1.80;;;0.77;;
41263;SDS011;26998;48.714;9.414;2022-09-09T16:00:14;2.67;;;0.77;;
41263;SDS011;26998;48.714;9.414;2022-09-09T16:02:40;3.17;;;0.90;;
41263;SDS011;26998;48.714;9.414;2022-09-09T16:05:07;2.55;;;0.90;;
41263;SDS011;26998;48.714;9.414;2022-09-09T16:07:33;5.05;;;0.95;;
41263;SDS011;26998;48.714;9.414;2022-09-09T16:09:59;2.60;;;0.70;;
41263;SDS011;26998;48.714;9.414;2022-09-09T16:12:26;2.95;;;0.95;;
41263;SDS011;26998;48.714;9.414;2022-09-09T16:14:53;2.33;;;0.70;;
41263;SDS011;26998;48.714;9.414;2022-09-09T16:17:19;2.50;;;0.63;;
41263;SDS011;26998;48.714;9.414;2022-09-09T16:19:46;4.95;;;1.10;;
41263;SDS011;26998;48.714;9.414;2022-09-09T16:22:12;4.68;;;0.95;;
41263;SDS011;26998;48.714;9.414;2022-09-09T16:24:39;2.50;;;0.70;;
41263;SDS011;26998;48.714;9.414;2022-09-09T16:27:05;4.60;;;0.80;;
41263;SDS011;26998;48.714;9.414;2022-09-09T16:29:31;2.33;;;0.88;;
41263;SDS011;26998;48.714;9.414;2022-09-09T16:31:58;2.25;;;0.52;;
41263;SDS011;26998;48.714;9.414;2022-09-09T16:34:29;3.03;;;0.80;;
41263;SDS011;26998;48.714;9.414;2022-09-09T16:36:55;2.25;;;0.90;;
41263;SDS011;26998;48.714;9.414;2022-09-09T16:39:22;2.78;;;0.70;;
41263;SDS011;26998;48.714;9.414;2022-09-09T16:41:49;2.65;;;0.80;;
41263;SDS011;26998;48.714;9.414;2022-09-09T16:44:16;2.60;;;0.70;;
41263;SDS011;26998;48.714;9.414;2022-09-09T16:46:44;2.55;;;0.70;;
41263;SDS011;26998;48.714;9.414;2022-09-09T16:49:12;3.03;;;0.80;;
41263;SDS011;26998;48.714;9.414;2022-09-09T16:51:40;2.50;;;0.80;;
41263;SDS011;26998;48.714;9.414;2022-09-09T16:54:15;1.80;;;0.80;;
41263;SDS011;26998;48.714;9.414;2022-09-09T16:56:44;2.05;;;0.73;;
41263;SDS011;26998;48.714;9.414;2022-09-09T16:59:16;1.40;;;0.68;;
41263;SDS011;26998;48.714;9.414;2022-09-09T17:01:45;2.83;;;1.20;;
41263;SDS011;26998;48.714;9.414;2022-09-09T17:04:14;3.75;;;0.85;;
41263;SDS011;26998;48.714;9.414;2022-09-09T17:06:45;3.38;;;0.93;;
41263;SDS011;26998;48.714;9.414;2022-09-09T17:09:12;2.13;;;0.50;;
41263;SDS011;26998;48.714;9.414;2022-09-09T17:11:39;3.55;;;1.08;;